createdAt,value
2022-08-08T00:02:31.170Z,14.90
2022-08-08T00:07:51.753Z,14.80
2022-08-08T00:13:20.712Z,14.80
2022-08-08T00:18:57.464Z,14.70
2022-08-08T00:24:04.324Z,14.80
2022-08-08T00:29:45.114Z,14.80
2022-08-08T00:35:20.149Z,14.90
2022-08-08T00:41:10.962Z,14.80
2022-08-08T00:46:16.468Z,14.80
2022-08-08T00:51:57.179Z,14.80
2022-08-08T00:57:46.243Z,14.60
2022-08-08T01:04:02.547Z,14.60
2022-08-08T01:09:34.774Z,14.50
2022-08-08T01:15:17.204Z,14.40
2022-08-08T01:21:07.282Z,14.40
2022-08-08T01:26:40.594Z,14.50
2022-08-08T01:32:16.269Z,14.40
2022-08-08T01:37:56.378Z,14.30
2022-08-08T01:43:13.623Z,14.20
2022-08-08T01:48:52.344Z,14.20
2022-08-08T01:55:45.008Z,14.30
2022-08-08T02:00:02.207Z,14.30
2022-08-08T02:06:04.270Z,14.20
2022-08-08T02:11:58.838Z,14.20
2022-08-08T02:17:42.965Z,14.20
2022-08-08T02:23:22.857Z,14.10
2022-08-08T02:28:48.167Z,14.20
2022-08-08T02:34:27.518Z,14.10
2022-08-08T02:40:22.443Z,14.10
2022-08-08T02:45:33.750Z,14.00
2022-08-08T02:51:55.740Z,14.10
2022-08-08T02:57:40.606Z,14.10
2022-08-08T03:05:00.773Z,14.10
2022-08-08T03:09:22.979Z,14.00
2022-08-08T03:16:01.580Z,14.00
2022-08-08T03:20:17.201Z,14.00
2022-08-08T03:25:34.021Z,13.90
2022-08-08T03:30:42.714Z,13.80
2022-08-08T03:35:52.018Z,13.70
2022-08-08T03:40:56.770Z,13.70
2022-08-08T03:46:09.291Z,13.60
2022-08-08T03:51:15.217Z,13.60
2022-08-08T03:56:31.701Z,13.70
2022-08-08T04:02:12.256Z,13.70
2022-08-08T04:07:01.591Z,13.50
2022-08-08T04:12:11.813Z,13.50
2022-08-08T04:17:46.010Z,13.50
2022-08-08T04:22:43.771Z,13.50
2022-08-08T04:28:35.254Z,13.60
2022-08-08T04:33:12.469Z,13.50
2022-08-08T04:38:21.721Z,13.60
2022-08-08T04:43:31.301Z,13.60
2022-08-08T04:48:50.430Z,13.60
2022-08-08T04:54:38.835Z,13.60
2022-08-08T04:59:17.113Z,13.60
2022-08-08T05:04:27.243Z,13.70
2022-08-08T05:09:30.831Z,13.60
2022-08-08T05:14:38.810Z,13.70
2022-08-08T05:20:11.295Z,13.90
2022-08-08T05:25:09.237Z,14.10
2022-08-08T05:30:11.865Z,14.30
2022-08-08T05:35:23.370Z,14.50
2022-08-08T05:40:29.221Z,14.80
2022-08-08T05:45:42.998Z,14.90
2022-08-08T05:50:59.000Z,15.20
2022-08-08T05:56:16.155Z,15.60
2022-08-08T06:01:56.317Z,16.30
2022-08-08T06:06:50.439Z,16.90
2022-08-08T06:11:53.918Z,17.30
2022-08-08T06:17:01.299Z,17.60
2022-08-08T06:22:42.151Z,17.90
2022-08-08T06:27:56.281Z,18.30
2022-08-08T06:33:03.371Z,18.50
2022-08-08T06:38:09.400Z,18.70
2022-08-08T06:43:30.529Z,19.00
2022-08-08T06:48:39.038Z,19.30
2022-08-08T06:53:50.394Z,19.70
2022-08-08T06:58:59.834Z,20.10
2022-08-08T07:04:37.832Z,20.40
2022-08-08T07:09:59.983Z,20.70
2022-08-08T07:15:11.462Z,21.10
2022-08-08T07:20:35.323Z,21.40
2022-08-08T07:25:54.743Z,21.80
2022-08-08T07:30:59.722Z,21.90
2022-08-08T07:36:05.405Z,21.90
2022-08-08T07:41:24.682Z,21.80
2022-08-08T07:46:31.176Z,21.70
2022-08-08T07:51:45.483Z,21.60
2022-08-08T07:57:29.859Z,21.40
2022-08-08T08:02:48.522Z,21.30
2022-08-08T08:08:04.000Z,21.20
2022-08-08T08:13:25.507Z,21.30
2022-08-08T08:18:56.002Z,21.30
2022-08-08T08:24:02.781Z,21.70
2022-08-08T08:29:06.064Z,22.00
2022-08-08T08:34:09.693Z,22.10
2022-08-08T08:39:17.706Z,22.50
2022-08-08T08:44:28.987Z,22.70
2022-08-08T08:49:34.613Z,22.90
2022-08-08T08:54:39.091Z,22.70
2022-08-08T08:59:59.385Z,22.80
2022-08-08T09:05:06.124Z,22.70
2022-08-08T09:10:13.894Z,22.40
2022-08-08T09:15:41.386Z,22.30
2022-08-08T09:21:58.126Z,22.10
2022-08-08T09:26:19.080Z,22.60
2022-08-08T09:31:42.123Z,23.20
2022-08-08T09:36:51.804Z,23.80
2022-08-08T09:42:21.746Z,24.40
2022-08-08T09:48:09.671Z,24.30
2022-08-08T09:52:59.332Z,24.30
2022-08-08T09:58:19.844Z,23.90
2022-08-08T10:03:31.521Z,24.00
2022-08-08T10:08:44.816Z,24.10
2022-08-08T10:13:57.526Z,24.50
2022-08-08T10:19:04.826Z,24.90
2022-08-08T10:24:12.159Z,25.10
2022-08-08T10:29:59.105Z,25.30
2022-08-08T10:36:09.451Z,25.10
2022-08-08T10:40:39.932Z,24.90
2022-08-08T10:45:56.773Z,24.60
2022-08-08T10:51:10.869Z,24.20
2022-08-08T10:56:27.502Z,24.00
2022-08-08T11:01:37.555Z,23.90
2022-08-08T11:06:41.461Z,24.00
2022-08-08T11:12:05.960Z,24.40
2022-08-08T11:17:14.913Z,25.10
2022-08-08T11:22:21.009Z,25.50
2022-08-08T11:27:37.289Z,25.50
2022-08-08T11:32:41.930Z,25.70
2022-08-08T11:38:36.202Z,25.70
2022-08-08T11:43:11.813Z,25.90
2022-08-08T11:48:20.681Z,26.10
2022-08-08T11:53:24.277Z,26.30
2022-08-08T11:58:34.845Z,26.50
2022-08-08T12:03:46.908Z,26.40
2022-08-08T12:08:49.306Z,26.50
2022-08-08T12:14:03.139Z,26.70
2022-08-08T12:19:12.295Z,26.30
2022-08-08T12:24:19.662Z,26.00
2022-08-08T12:29:40.455Z,25.60
2022-08-08T12:34:48.595Z,25.30
2022-08-08T12:40:01.989Z,25.30
2022-08-08T12:45:57.789Z,25.40
2022-08-08T12:50:40.540Z,25.30
2022-08-08T12:56:18.024Z,24.90
2022-08-08T13:01:24.282Z,24.60
2022-08-08T13:06:26.653Z,24.40
2022-08-08T13:12:28.266Z,24.60
2022-08-08T13:17:00.602Z,25.10
2022-08-08T13:22:06.972Z,25.50
2022-08-08T13:27:15.078Z,25.60
2022-08-08T13:32:17.964Z,25.70
2022-08-08T13:37:28.033Z,26.10
2022-08-08T13:42:46.657Z,26.30
2022-08-08T13:47:59.474Z,26.00
2022-08-08T13:53:01.457Z,25.50
2022-08-08T13:58:23.239Z,25.20
2022-08-08T14:03:52.152Z,25.00
2022-08-08T14:08:56.900Z,24.80
2022-08-08T14:14:02.281Z,24.70
2022-08-08T14:19:09.450Z,24.60
2022-08-08T14:24:15.977Z,24.50
2022-08-08T14:29:28.544Z,24.50
2022-08-08T14:34:32.924Z,24.40
2022-08-08T14:40:05.720Z,24.40
2022-08-08T14:45:14.319Z,24.40
2022-08-08T14:50:38.000Z,24.20
2022-08-08T14:55:42.972Z,24.20
2022-08-08T15:00:46.650Z,24.10
2022-08-08T15:05:54.687Z,23.90
2022-08-08T15:10:59.920Z,23.80
2022-08-08T15:16:03.715Z,23.80
2022-08-08T15:21:08.105Z,23.70
2022-08-08T15:26:13.000Z,23.70
2022-08-08T15:31:21.724Z,23.70
2022-08-08T15:36:37.442Z,23.70
2022-08-08T15:41:45.909Z,23.80
2022-08-08T15:46:50.521Z,23.90
2022-08-08T15:51:54.501Z,23.80
2022-08-08T15:56:56.794Z,23.70
2022-08-08T16:02:00.501Z,23.70
2022-08-08T16:07:03.801Z,23.80
2022-08-08T16:13:05.266Z,23.80
2022-08-08T16:17:58.213Z,23.80
2022-08-08T16:22:52.169Z,23.90
2022-08-08T16:27:57.794Z,23.70
2022-08-08T16:33:00.197Z,23.60
2022-08-08T16:38:10.928Z,23.50
2022-08-08T16:43:14.622Z,23.50
2022-08-08T16:48:16.677Z,23.50
2022-08-08T16:55:00.530Z,23.30
2022-08-08T16:58:42.763Z,23.20
2022-08-08T17:03:58.784Z,23.30
2022-08-08T17:09:04.030Z,23.10
2022-08-08T17:14:17.759Z,22.90
2022-08-08T17:19:21.078Z,22.90
2022-08-08T17:24:27.998Z,22.90
2022-08-08T17:29:34.122Z,22.90
2022-08-08T17:35:14.438Z,22.70
2022-08-08T17:40:10.742Z,22.60
2022-08-08T17:45:22.471Z,22.40
2022-08-08T17:50:25.978Z,22.40
2022-08-08T17:56:06.109Z,22.20
2022-08-08T18:00:57.391Z,22.20
2022-08-08T18:05:59.420Z,22.10
2022-08-08T18:11:15.805Z,22.00
2022-08-08T18:16:23.220Z,21.80
2022-08-08T18:22:00.198Z,21.70
2022-08-08T18:26:56.083Z,21.50
2022-08-08T18:31:59.436Z,21.20
2022-08-08T18:37:08.588Z,21.10
2022-08-08T18:42:16.561Z,20.90
2022-08-08T18:47:21.390Z,20.80
2022-08-08T18:52:26.063Z,20.70
2022-08-08T18:57:31.965Z,20.50
2022-08-08T19:02:39.067Z,20.40
2022-08-08T19:07:56.564Z,20.20
2022-08-08T19:12:58.357Z,20.00
2022-08-08T19:18:31.935Z,19.90
2022-08-08T19:23:27.965Z,19.60
2022-08-08T19:28:31.014Z,19.40
2022-08-08T19:33:51.767Z,19.10
2022-08-08T19:38:57.042Z,18.90
2022-08-08T19:44:04.132Z,18.70
2022-08-08T19:49:14.900Z,18.50
2022-08-08T19:54:16.953Z,18.40
2022-08-08T19:59:22.699Z,18.40
2022-08-08T20:04:24.986Z,18.50
2022-08-08T20:09:30.069Z,18.80
2022-08-08T20:14:36.016Z,19.00
2022-08-08T20:19:43.835Z,19.10
2022-08-08T20:24:45.738Z,19.20
2022-08-08T20:30:00.375Z,19.10
2022-08-08T20:35:04.152Z,18.90
2022-08-08T20:40:08.010Z,18.80
2022-08-08T20:45:10.319Z,18.80
2022-08-08T20:50:14.770Z,18.60
2022-08-08T20:55:25.800Z,18.40
2022-08-08T21:00:28.014Z,18.30
2022-08-08T21:05:31.994Z,18.20
2022-08-08T21:10:33.992Z,18.10
2022-08-08T21:16:05.453Z,17.90
2022-08-08T21:20:58.289Z,17.80
2022-08-08T21:26:00.310Z,17.80
2022-08-08T21:31:05.829Z,17.70
2022-08-08T21:36:29.429Z,17.50
2022-08-08T21:41:42.699Z,17.30
2022-08-08T21:48:20.134Z,17.10
2022-08-08T21:54:31.446Z,17.00
2022-08-08T21:57:41.881Z,17.10
2022-08-08T22:02:46.075Z,17.20
2022-08-08T22:07:49.005Z,17.10
2022-08-08T22:12:51.775Z,16.90
2022-08-08T22:17:53.955Z,16.80
2022-08-08T22:22:56.866Z,16.80
2022-08-08T22:29:04.722Z,16.60
2022-08-08T22:34:13.772Z,16.60
2022-08-08T22:38:50.871Z,16.70
2022-08-08T22:44:05.586Z,16.70
2022-08-08T22:49:09.281Z,16.70
2022-08-08T22:54:32.377Z,16.60
2022-08-08T22:59:36.307Z,16.50
2022-08-08T23:04:56.053Z,16.40
2022-08-08T23:09:59.482Z,16.40
2022-08-08T23:16:39.476Z,16.30
2022-08-08T23:20:27.122Z,16.30
2022-08-08T23:25:29.518Z,16.30
2022-08-08T23:30:39.207Z,16.20
2022-08-08T23:36:06.965Z,16.10
2022-08-08T23:41:05.114Z,16.10
2022-08-08T23:49:05.809Z,16.00
2022-08-08T23:51:42.435Z,15.90
2022-08-08T23:56:58.202Z,15.80
